sensor_id;sensor_type;location;lat;lon;timestamp;P1;durP1;ratioP1;P2;durP2;ratioP2
22046;SDS011;11187;49.412;20.956;2023-03-29T00:01:57;14.38;;;13.05;;
22046;SDS011;11187;49.412;20.956;2023-03-29T00:04:43;15.85;;;14.57;;
22046;SDS011;11187;49.412;20.956;2023-03-29T00:07:18;14.32;;;13.13;;
22046;SDS011;11187;49.412;20.956;2023-03-29T00:10:04;16.52;;;14.13;;
22046;SDS011;11187;49.412;20.956;2023-03-29T00:12:39;15.52;;;14.30;;
22046;SDS011;11187;49.412;20.956;2023-03-29T00:15:26;17.58;;;15.85;;
22046;SDS011;11187;49.412;20.956;2023-03-29T00:18:00;14.48;;;13.48;;
22046;SDS011;11187;49.412;20.956;2023-03-29T00:20:57;15.25;;;13.85;;
22046;SDS011;11187;49.412;20.956;2023-03-29T00:23:51;15.57;;;14.45;;
22046;SDS011;11187;49.412;20.956;2023-03-29T00:26:45;15.82;;;14.48;;
22046;SDS011;11187;49.412;20.956;2023-03-29T00:29:19;16.23;;;15.02;;
22046;SDS011;11187;49.412;20.956;2023-03-29T00:32:05;15.10;;;13.57;;
22046;SDS011;11187;49.412;20.956;2023-03-29T00:34:39;14.35;;;13.02;;
22046;SDS011;11187;49.412;20.956;2023-03-29T00:37:29;14.68;;;13.57;;
22046;SDS011;11187;49.412;20.956;2023-03-29T00:40:24;15.48;;;14.25;;
22046;SDS011;11187;49.412;20.956;2023-03-29T00:43:18;16.65;;;15.15;;
22046;SDS011;11187;49.412;20.956;2023-03-29T00:45:52;15.68;;;14.15;;
22046;SDS011;11187;49.412;20.956;2023-03-29T00:48:45;14.93;;;13.52;;
22046;SDS011;11187;49.412;20.956;2023-03-29T00:51:19;16.35;;;14.82;;
22046;SDS011;11187;49.412;20.956;2023-03-29T00:54:09;15.23;;;13.95;;
22046;SDS011;11187;49.412;20.956;2023-03-29T00:56:50;21.88;;;13.48;;
22046;SDS011;11187;49.412;20.956;2023-03-29T00:59:40;14.57;;;13.27;;
22046;SDS011;11187;49.412;20.956;2023-03-29T01:02:15;15.23;;;13.93;;
22046;SDS011;11187;49.412;20.956;2023-03-29T01:05:11;16.08;;;14.75;;
22046;SDS011;11187;49.412;20.956;2023-03-29T01:07:56;16.45;;;14.90;;
22046;SDS011;11187;49.412;20.956;2023-03-29T01:10:57;16.45;;;15.13;;
22046;SDS011;11187;49.412;20.956;2023-03-29T01:13:37;15.02;;;13.88;;
22046;SDS011;11187;49.412;20.956;2023-03-29T01:16:36;14.85;;;13.73;;
22046;SDS011;11187;49.412;20.956;2023-03-29T01:19:11;14.80;;;13.52;;
22046;SDS011;11187;49.412;20.956;2023-03-29T01:28:12;17.15;;;15.70;;
22046;SDS011;11187;49.412;20.956;2023-03-29T01:30:50;15.93;;;14.32;;
22046;SDS011;11187;49.412;20.956;2023-03-29T01:33:48;15.88;;;14.70;;
22046;SDS011;11187;49.412;20.956;2023-03-29T01:36:26;15.73;;;14.50;;
22046;SDS011;11187;49.412;20.956;2023-03-29T01:39:25;15.43;;;14.27;;
22046;SDS011;11187;49.412;20.956;2023-03-29T01:45:23;14.93;;;13.63;;
22046;SDS011;11187;49.412;20.956;2023-03-29T01:48:49;15.15;;;13.95;;
22046;SDS011;11187;49.412;20.956;2023-03-29T01:51:41;16.02;;;13.43;;
22046;SDS011;11187;49.412;20.956;2023-03-29T01:54:52;15.27;;;14.07;;
22046;SDS011;11187;49.412;20.956;2023-03-29T01:57:50;17.38;;;15.55;;
22046;SDS011;11187;49.412;20.956;2023-03-29T02:00:47;16.65;;;15.25;;
22046;SDS011;11187;49.412;20.956;2023-03-29T02:03:26;16.65;;;15.35;;
22046;SDS011;11187;49.412;20.956;2023-03-29T02:06:28;16.73;;;15.43;;
22046;SDS011;11187;49.412;20.956;2023-03-29T02:09:05;18.38;;;16.63;;
22046;SDS011;11187;49.412;20.956;2023-03-29T02:11:54;17.70;;;16.00;;
22046;SDS011;11187;49.412;20.956;2023-03-29T02:14:30;14.77;;;13.38;;
22046;SDS011;11187;49.412;20.956;2023-03-29T02:17:24;17.08;;;15.52;;
22046;SDS011;11187;49.412;20.956;2023-03-29T02:20:00;17.10;;;15.52;;
22046;SDS011;11187;49.412;20.956;2023-03-29T02:23:09;15.25;;;14.00;;
22046;SDS011;11187;49.412;20.956;2023-03-29T02:25:46;17.70;;;16.13;;
22046;SDS011;11187;49.412;20.956;2023-03-29T02:28:42;16.77;;;15.10;;
22046;SDS011;11187;49.412;20.956;2023-03-29T02:31:39;18.25;;;16.23;;
22046;SDS011;11187;49.412;20.956;2023-03-29T02:34:19;17.35;;;15.85;;
22046;SDS011;11187;49.412;20.956;2023-03-29T02:37:18;19.23;;;17.13;;
22046;SDS011;11187;49.412;20.956;2023-03-29T02:40:15;18.27;;;16.45;;
22046;SDS011;11187;49.412;20.956;2023-03-29T02:42:50;18.45;;;16.63;;
22046;SDS011;11187;49.412;20.956;2023-03-29T02:45:39;18.95;;;16.58;;
22046;SDS011;11187;49.412;20.956;2023-03-29T02:48:16;21.27;;;18.08;;
22046;SDS011;11187;49.412;20.956;2023-03-29T02:51:17;23.92;;;19.35;;
22046;SDS011;11187;49.412;20.956;2023-03-29T02:54:16;20.33;;;18.17;;
22046;SDS011;11187;49.412;20.956;2023-03-29T02:56:55;19.00;;;17.17;;
22046;SDS011;11187;49.412;20.956;2023-03-29T02:59:54;18.85;;;15.73;;
22046;SDS011;11187;49.412;20.956;2023-03-29T03:02:52;17.08;;;14.90;;
22046;SDS011;11187;49.412;20.956;2023-03-29T03:05:27;16.85;;;15.27;;
22046;SDS011;11187;49.412;20.956;2023-03-29T03:08:14;22.65;;;16.05;;
22046;SDS011;11187;49.412;20.956;2023-03-29T03:10:48;17.23;;;15.52;;
22046;SDS011;11187;49.412;20.956;2023-03-29T03:13:34;16.65;;;15.13;;
22046;SDS011;11187;49.412;20.956;2023-03-29T03:16:08;16.83;;;15.27;;
22046;SDS011;11187;49.412;20.956;2023-03-29T03:19:02;18.05;;;15.02;;
22046;SDS011;11187;49.412;20.956;2023-03-29T03:21:55;16.55;;;14.95;;
22046;SDS011;11187;49.412;20.956;2023-03-29T03:24:51;16.13;;;14.50;;
22046;SDS011;11187;49.412;20.956;2023-03-29T03:27:25;18.10;;;16.38;;
22046;SDS011;11187;49.412;20.956;2023-03-29T03:30:20;20.20;;;15.68;;
22046;SDS011;11187;49.412;20.956;2023-03-29T03:32:53;17.05;;;14.95;;
22046;SDS011;11187;49.412;20.956;2023-03-29T03:35:46;18.17;;;16.42;;
22046;SDS011;11187;49.412;20.956;2023-03-29T03:38:47;15.13;;;13.80;;
22046;SDS011;11187;49.412;20.956;2023-03-29T03:41:41;15.98;;;13.90;;
22046;SDS011;11187;49.412;20.956;2023-03-29T03:44:35;16.70;;;15.30;;
22046;SDS011;11187;49.412;20.956;2023-03-29T03:47:10;15.60;;;14.02;;
22046;SDS011;11187;49.412;20.956;2023-03-29T03:50:05;15.20;;;13.70;;
22046;SDS011;11187;49.412;20.956;2023-03-29T03:52:59;15.75;;;14.40;;
22046;SDS011;11187;49.412;20.956;2023-03-29T03:55:33;18.52;;;14.82;;
22046;SDS011;11187;49.412;20.956;2023-03-29T03:58:19;15.85;;;14.32;;
22046;SDS011;11187;49.412;20.956;2023-03-29T04:00:54;15.95;;;14.40;;
22046;SDS011;11187;49.412;20.956;2023-03-29T04:03:40;26.05;;;17.70;;
22046;SDS011;11187;49.412;20.956;2023-03-29T04:06:14;17.90;;;15.52;;
22046;SDS011;11187;49.412;20.956;2023-03-29T04:09:07;18.75;;;14.52;;
22046;SDS011;11187;49.412;20.956;2023-03-29T04:12:01;18.55;;;14.10;;
22046;SDS011;11187;49.412;20.956;2023-03-29T04:14:35;19.98;;;15.60;;
22046;SDS011;11187;49.412;20.956;2023-03-29T04:17:28;16.60;;;13.77;;
22046;SDS011;11187;49.412;20.956;2023-03-29T04:20:22;19.65;;;15.57;;
22046;SDS011;11187;49.412;20.956;2023-03-29T04:22:59;24.02;;;16.60;;
22046;SDS011;11187;49.412;20.956;2023-03-29T04:25:54;23.23;;;17.00;;
22046;SDS011;11187;49.412;20.956;2023-03-29T04:28:47;22.40;;;16.20;;
22046;SDS011;11187;49.412;20.956;2023-03-29T04:31:21;20.73;;;17.45;;
22046;SDS011;11187;49.412;20.956;2023-03-29T04:34:14;20.73;;;17.48;;
22046;SDS011;11187;49.412;20.956;2023-03-29T04:37:08;23.08;;;17.83;;
22046;SDS011;11187;49.412;20.956;2023-03-29T04:40:08;23.77;;;16.38;;
22046;SDS011;11187;49.412;20.956;2023-03-29T04:43:04;18.35;;;14.98;;
22046;SDS011;11187;49.412;20.956;2023-03-29T04:45:38;19.73;;;15.80;;
22046;SDS011;11187;49.412;20.956;2023-03-29T04:48:24;16.98;;;15.18;;
22046;SDS011;11187;49.412;20.956;2023-03-29T04:50:58;21.45;;;16.63;;
22046;SDS011;11187;49.412;20.956;2023-03-29T04:53:45;26.45;;;17.27;;
22046;SDS011;11187;49.412;20.956;2023-03-29T04:56:20;18.90;;;17.08;;
22046;SDS011;11187;49.412;20.956;2023-03-29T04:59:13;22.88;;;19.45;;
22046;SDS011;11187;49.412;20.956;2023-03-29T05:01:47;19.70;;;16.77;;
22046;SDS011;11187;49.412;20.956;2023-03-29T05:04:33;18.08;;;16.27;;
22046;SDS011;11187;49.412;20.956;2023-03-29T05:07:08;23.88;;;17.58;;
22046;SDS011;11187;49.412;20.956;2023-03-29T05:10:03;18.60;;;16.70;;
22046;SDS011;11187;49.412;20.956;2023-03-29T05:12:58;18.27;;;14.45;;
22046;SDS011;11187;49.412;20.956;2023-03-29T05:15:32;23.17;;;18.33;;
22046;SDS011;11187;49.412;20.956;2023-03-29T05:18:19;18.98;;;17.10;;
22046;SDS011;11187;49.412;20.956;2023-03-29T05:20:53;18.52;;;16.05;;
22046;SDS011;11187;49.412;20.956;2023-03-29T05:23:39;17.00;;;15.40;;
22046;SDS011;11187;49.412;20.956;2023-03-29T05:26:13;20.23;;;18.25;;
22046;SDS011;11187;49.412;20.956;2023-03-29T05:29:00;18.42;;;16.52;;
22046;SDS011;11187;49.412;20.956;2023-03-29T05:31:34;17.92;;;16.42;;
22046;SDS011;11187;49.412;20.956;2023-03-29T05:34:21;18.00;;;16.20;;
22046;SDS011;11187;49.412;20.956;2023-03-29T05:36:55;17.13;;;15.32;;
22046;SDS011;11187;49.412;20.956;2023-03-29T05:39:48;17.45;;;15.85;;
22046;SDS011;11187;49.412;20.956;2023-03-29T05:42:38;19.00;;;16.95;;
22046;SDS011;11187;49.412;20.956;2023-03-29T05:45:18;24.95;;;17.63;;
22046;SDS011;11187;49.412;20.956;2023-03-29T05:47:52;18.38;;;14.65;;
22046;SDS011;11187;49.412;20.956;2023-03-29T05:50:38;18.98;;;17.10;;
22046;SDS011;11187;49.412;20.956;2023-03-29T05:53:12;18.27;;;16.48;;
22046;SDS011;11187;49.412;20.956;2023-03-29T05:55:58;18.48;;;15.30;;
22046;SDS011;11187;49.412;20.956;2023-03-29T05:58:32;17.38;;;15.70;;
22046;SDS011;11187;49.412;20.956;2023-03-29T06:01:18;17.40;;;15.63;;
22046;SDS011;11187;49.412;20.956;2023-03-29T06:03:52;19.73;;;17.65;;
22046;SDS011;11187;49.412;20.956;2023-03-29T06:06:40;14.93;;;13.63;;
22046;SDS011;11187;49.412;20.956;2023-03-29T06:09:14;19.70;;;17.95;;
22046;SDS011;11187;49.412;20.956;2023-03-29T06:12:01;17.52;;;15.93;;
22046;SDS011;11187;49.412;20.956;2023-03-29T06:14:36;18.40;;;17.00;;
22046;SDS011;11187;49.412;20.956;2023-03-29T06:17:22;16.17;;;14.27;;
22046;SDS011;11187;49.412;20.956;2023-03-29T06:19:56;17.83;;;16.23;;
22046;SDS011;11187;49.412;20.956;2023-03-29T06:22:53;17.52;;;14.80;;
22046;SDS011;11187;49.412;20.956;2023-03-29T06:25:48;27.52;;;20.52;;
22046;SDS011;11187;49.412;20.956;2023-03-29T06:28:23;20.95;;;18.75;;
22046;SDS011;11187;49.412;20.956;2023-03-29T06:31:09;20.30;;;17.67;;
22046;SDS011;11187;49.412;20.956;2023-03-29T06:33:45;22.48;;;20.38;;
22046;SDS011;11187;49.412;20.956;2023-03-29T06:36:32;24.95;;;22.45;;
22046;SDS011;11187;49.412;20.956;2023-03-29T06:39:07;19.10;;;16.50;;
22046;SDS011;11187;49.412;20.956;2023-03-29T06:41:53;21.88;;;19.63;;
22046;SDS011;11187;49.412;20.956;2023-03-29T06:44:42;18.80;;;17.00;;
22046;SDS011;11187;49.412;20.956;2023-03-29T06:47:28;19.73;;;18.00;;
22046;SDS011;11187;49.412;20.956;2023-03-29T06:50:03;18.95;;;17.08;;
22046;SDS011;11187;49.412;20.956;2023-03-29T06:52:57;17.23;;;15.80;;
22046;SDS011;11187;49.412;20.956;2023-03-29T06:55:51;17.50;;;15.82;;
22046;SDS011;11187;49.412;20.956;2023-03-29T06:58:25;17.77;;;16.17;;
22046;SDS011;11187;49.412;20.956;2023-03-29T07:01:18;19.55;;;17.42;;
22046;SDS011;11187;49.412;20.956;2023-03-29T07:04:12;20.75;;;18.30;;
22046;SDS011;11187;49.412;20.956;2023-03-29T07:07:06;17.38;;;15.88;;
22046;SDS011;11187;49.412;20.956;2023-03-29T07:09:47;17.60;;;16.00;;
22046;SDS011;11187;49.412;20.956;2023-03-29T07:12:40;16.17;;;14.65;;
22046;SDS011;11187;49.412;20.956;2023-03-29T07:15:34;16.35;;;14.75;;
22046;SDS011;11187;49.412;20.956;2023-03-29T07:18:28;16.48;;;15.13;;
22046;SDS011;11187;49.412;20.956;2023-03-29T07:21:22;16.67;;;15.20;;
22046;SDS011;11187;49.412;20.956;2023-03-29T07:23:56;16.13;;;13.82;;
22046;SDS011;11187;49.412;20.956;2023-03-29T07:26:43;16.30;;;15.00;;
22046;SDS011;11187;49.412;20.956;2023-03-29T07:29:29;15.63;;;14.25;;
22046;SDS011;11187;49.412;20.956;2023-03-29T07:32:16;17.25;;;15.88;;
22046;SDS011;11187;49.412;20.956;2023-03-29T07:34:50;15.18;;;13.85;;
22046;SDS011;11187;49.412;20.956;2023-03-29T07:37:44;16.17;;;14.88;;
22046;SDS011;11187;49.412;20.956;2023-03-29T07:40:37;16.30;;;14.90;;
22046;SDS011;11187;49.412;20.956;2023-03-29T07:43:11;14.55;;;13.35;;
22046;SDS011;11187;49.412;20.956;2023-03-29T07:46:05;15.57;;;14.35;;
22046;SDS011;11187;49.412;20.956;2023-03-29T07:48:39;16.00;;;14.65;;
22046;SDS011;11187;49.412;20.956;2023-03-29T07:51:32;15.43;;;14.32;;
22046;SDS011;11187;49.412;20.956;2023-03-29T07:54:26;17.10;;;15.80;;
22046;SDS011;11187;49.412;20.956;2023-03-29T07:57:00;14.18;;;13.07;;
22046;SDS011;11187;49.412;20.956;2023-03-29T07:59:46;16.33;;;15.02;;
22046;SDS011;11187;49.412;20.956;2023-03-29T08:02:20;14.30;;;13.20;;
22046;SDS011;11187;49.412;20.956;2023-03-29T08:05:08;13.75;;;12.57;;
22046;SDS011;11187;49.412;20.956;2023-03-29T08:07:54;13.95;;;12.95;;
22046;SDS011;11187;49.412;20.956;2023-03-29T08:10:41;15.35;;;14.15;;
22046;SDS011;11187;49.412;20.956;2023-03-29T08:13:16;14.80;;;13.70;;
22046;SDS011;11187;49.412;20.956;2023-03-29T08:16:02;16.42;;;15.18;;
22046;SDS011;11187;49.412;20.956;2023-03-29T08:18:37;14.85;;;13.88;;
22046;SDS011;11187;49.412;20.956;2023-03-29T08:21:30;12.38;;;11.40;;
22046;SDS011;11187;49.412;20.956;2023-03-29T08:24:04;15.90;;;14.80;;
22046;SDS011;11187;49.412;20.956;2023-03-29T08:26:51;13.93;;;12.90;;
22046;SDS011;11187;49.412;20.956;2023-03-29T08:29:28;14.65;;;13.45;;
22046;SDS011;11187;49.412;20.956;2023-03-29T08:32:21;16.58;;;15.35;;
22046;SDS011;11187;49.412;20.956;2023-03-29T08:34:58;14.93;;;13.80;;
22046;SDS011;11187;49.412;20.956;2023-03-29T08:37:46;14.73;;;13.77;;
22046;SDS011;11187;49.412;20.956;2023-03-29T08:40:39;16.20;;;15.10;;
22046;SDS011;11187;49.412;20.956;2023-03-29T08:46:18;16.00;;;14.90;;
22046;SDS011;11187;49.412;20.956;2023-03-29T08:49:14;14.85;;;13.85;;
22046;SDS011;11187;49.412;20.956;2023-03-29T08:51:51;12.60;;;11.55;;
22046;SDS011;11187;49.412;20.956;2023-03-29T08:54:51;12.05;;;11.13;;
22046;SDS011;11187;49.412;20.956;2023-03-29T08:57:29;13.25;;;12.35;;
22046;SDS011;11187;49.412;20.956;2023-03-29T09:00:24;12.25;;;11.35;;
22046;SDS011;11187;49.412;20.956;2023-03-29T09:03:25;13.57;;;12.60;;
22046;SDS011;11187;49.412;20.956;2023-03-29T09:06:10;12.57;;;11.68;;
22046;SDS011;11187;49.412;20.956;2023-03-29T09:08:54;13.57;;;12.35;;
22046;SDS011;11187;49.412;20.956;2023-03-29T09:23:10;12.40;;;11.38;;
22046;SDS011;11187;49.412;20.956;2023-03-29T09:26:07;12.85;;;11.88;;
22046;SDS011;11187;49.412;20.956;2023-03-29T09:31:31;13.45;;;12.00;;
22046;SDS011;11187;49.412;20.956;2023-03-29T09:34:21;11.75;;;10.73;;
22046;SDS011;11187;49.412;20.956;2023-03-29T09:37:08;12.68;;;11.68;;
22046;SDS011;11187;49.412;20.956;2023-03-29T09:40:26;12.23;;;11.23;;
22046;SDS011;11187;49.412;20.956;2023-03-29T09:43:28;14.77;;;13.68;;
22046;SDS011;11187;49.412;20.956;2023-03-29T09:49:23;11.52;;;10.73;;
22046;SDS011;11187;49.412;20.956;2023-03-29T09:52:14;11.65;;;10.75;;
22046;SDS011;11187;49.412;20.956;2023-03-29T09:54:49;12.48;;;11.38;;
22046;SDS011;11187;49.412;20.956;2023-03-29T09:57:36;13.65;;;12.27;;
22046;SDS011;11187;49.412;20.956;2023-03-29T10:00:10;11.95;;;11.05;;
22046;SDS011;11187;49.412;20.956;2023-03-29T10:03:04;11.82;;;10.93;;
22046;SDS011;11187;49.412;20.956;2023-03-29T10:05:59;11.95;;;11.05;;
22046;SDS011;11187;49.412;20.956;2023-03-29T10:11:36;14.50;;;13.50;;
22046;SDS011;11187;49.412;20.956;2023-03-29T10:14:33;12.93;;;12.02;;
22046;SDS011;11187;49.412;20.956;2023-03-29T10:17:37;12.35;;;11.30;;
22046;SDS011;11187;49.412;20.956;2023-03-29T10:20:36;11.45;;;10.55;;
22046;SDS011;11187;49.412;20.956;2023-03-29T10:23:16;10.85;;;10.05;;
22046;SDS011;11187;49.412;20.956;2023-03-29T10:26:09;11.25;;;10.45;;
22046;SDS011;11187;49.412;20.956;2023-03-29T10:28:49;11.27;;;10.48;;
22046;SDS011;11187;49.412;20.956;2023-03-29T10:31:39;11.88;;;11.07;;
22046;SDS011;11187;49.412;20.956;2023-03-29T10:34:15;13.23;;;12.32;;
22046;SDS011;11187;49.412;20.956;2023-03-29T10:37:15;13.85;;;12.75;;
22046;SDS011;11187;49.412;20.956;2023-03-29T10:43:46;12.50;;;11.50;;
22046;SDS011;11187;49.412;20.956;2023-03-29T10:46:41;14.00;;;13.00;;
22046;SDS011;11187;49.412;20.956;2023-03-29T10:49:40;11.20;;;10.07;;
22046;SDS011;11187;49.412;20.956;2023-03-29T10:52:35;12.57;;;11.45;;
22046;SDS011;11187;49.412;20.956;2023-03-29T10:55:12;12.40;;;11.45;;
22046;SDS011;11187;49.412;20.956;2023-03-29T11:00:49;11.95;;;11.05;;
22046;SDS011;11187;49.412;20.956;2023-03-29T11:03:50;16.45;;;14.73;;
22046;SDS011;11187;49.412;20.956;2023-03-29T11:06:32;13.27;;;12.38;;
22046;SDS011;11187;49.412;20.956;2023-03-29T11:09:29;13.20;;;12.15;;
22046;SDS011;11187;49.412;20.956;2023-03-29T11:12:31;12.13;;;11.10;;
22046;SDS011;11187;49.412;20.956;2023-03-29T11:15:45;11.43;;;10.63;;
22046;SDS011;11187;49.412;20.956;2023-03-29T11:24:36;14.93;;;13.52;;
22046;SDS011;11187;49.412;20.956;2023-03-29T11:42:53;12.73;;;11.82;;
22046;SDS011;11187;49.412;20.956;2023-03-29T11:45:29;12.48;;;11.68;;
22046;SDS011;11187;49.412;20.956;2023-03-29T11:48:28;12.23;;;11.43;;
22046;SDS011;11187;49.412;20.956;2023-03-29T11:51:17;10.73;;;9.82;;
22046;SDS011;11187;49.412;20.956;2023-03-29T11:54:13;13.20;;;12.05;;
22046;SDS011;11187;49.412;20.956;2023-03-29T11:56:55;9.90;;;9.18;;
22046;SDS011;11187;49.412;20.956;2023-03-29T12:08:32;11.20;;;10.40;;
22046;SDS011;11187;49.412;20.956;2023-03-29T12:11:18;12.07;;;11.18;;
22046;SDS011;11187;49.412;20.956;2023-03-29T12:14:13;12.25;;;11.25;;
22046;SDS011;11187;49.412;20.956;2023-03-29T12:16:56;11.25;;;10.45;;
22046;SDS011;11187;49.412;20.956;2023-03-29T12:19:52;11.20;;;10.30;;
22046;SDS011;11187;49.412;20.956;2023-03-29T12:22:31;10.88;;;9.63;;
22046;SDS011;11187;49.412;20.956;2023-03-29T12:25:29;11.80;;;10.90;;
22046;SDS011;11187;49.412;20.956;2023-03-29T12:40:41;11.40;;;10.60;;
22046;SDS011;11187;49.412;20.956;2023-03-29T12:43:38;11.52;;;10.60;;
22046;SDS011;11187;49.412;20.956;2023-03-29T12:49:11;11.27;;;10.57;;
22046;SDS011;11187;49.412;20.956;2023-03-29T12:51:59;11.80;;;11.00;;
22046;SDS011;11187;49.412;20.956;2023-03-29T12:54:56;10.60;;;9.80;;
22046;SDS011;11187;49.412;20.956;2023-03-29T12:57:37;12.68;;;11.10;;
22046;SDS011;11187;49.412;20.956;2023-03-29T13:00:45;12.90;;;12.00;;
22046;SDS011;11187;49.412;20.956;2023-03-29T13:03:34;12.10;;;11.18;;
22046;SDS011;11187;49.412;20.956;2023-03-29T13:12:37;11.70;;;10.90;;
22046;SDS011;11187;49.412;20.956;2023-03-29T13:23:53;11.70;;;10.90;;
22046;SDS011;11187;49.412;20.956;2023-03-29T13:30:22;13.32;;;12.45;;
22046;SDS011;11187;49.412;20.956;2023-03-29T13:39:47;10.40;;;9.68;;
22046;SDS011;11187;49.412;20.956;2023-03-29T13:42:43;10.98;;;10.18;;
22046;SDS011;11187;49.412;20.956;2023-03-29T13:45:31;10.25;;;9.38;;
22046;SDS011;11187;49.412;20.956;2023-03-29T13:48:25;11.63;;;10.52;;
22046;SDS011;11187;49.412;20.956;2023-03-29T13:57:07;10.57;;;9.48;;
22046;SDS011;11187;49.412;20.956;2023-03-29T14:00:03;9.95;;;9.15;;
22046;SDS011;11187;49.412;20.956;2023-03-29T14:02:51;12.18;;;11.27;;
22046;SDS011;11187;49.412;20.956;2023-03-29T14:05:48;11.98;;;11.00;;
22046;SDS011;11187;49.412;20.956;2023-03-29T14:08:30;10.65;;;9.85;;
22046;SDS011;11187;49.412;20.956;2023-03-29T14:11:23;10.32;;;9.63;;
22046;SDS011;11187;49.412;20.956;2023-03-29T14:13:59;11.52;;;10.60;;
22046;SDS011;11187;49.412;20.956;2023-03-29T14:16:48;11.35;;;10.55;;
22046;SDS011;11187;49.412;20.956;2023-03-29T14:19:29;13.57;;;12.50;;
22046;SDS011;11187;49.412;20.956;2023-03-29T14:22:18;14.35;;;10.90;;
22046;SDS011;11187;49.412;20.956;2023-03-29T14:24:53;10.82;;;10.02;;
22046;SDS011;11187;49.412;20.956;2023-03-29T14:27:41;10.98;;;10.18;;
22046;SDS011;11187;49.412;20.956;2023-03-29T14:30:18;13.05;;;12.07;;
22046;SDS011;11187;49.412;20.956;2023-03-29T14:33:13;11.98;;;11.18;;
22046;SDS011;11187;49.412;20.956;2023-03-29T14:35:46;10.85;;;9.93;;
22046;SDS011;11187;49.412;20.956;2023-03-29T14:38:40;10.30;;;9.50;;
22046;SDS011;11187;49.412;20.956;2023-03-29T14:41:42;11.77;;;10.80;;
22046;SDS011;11187;49.412;20.956;2023-03-29T14:44:28;11.93;;;10.88;;
22046;SDS011;11187;49.412;20.956;2023-03-29T14:47:25;10.45;;;9.52;;
22046;SDS011;11187;49.412;20.956;2023-03-29T14:50:01;11.63;;;10.77;;
22046;SDS011;11187;49.412;20.956;2023-03-29T14:52:49;12.43;;;11.52;;
22046;SDS011;11187;49.412;20.956;2023-03-29T14:55:50;11.77;;;10.97;;
22046;SDS011;11187;49.412;20.956;2023-03-29T14:58:39;11.13;;;10.32;;
22046;SDS011;11187;49.412;20.956;2023-03-29T15:01:19;13.13;;;11.98;;
22046;SDS011;11187;49.412;20.956;2023-03-29T15:04:15;11.93;;;11.07;;
22046;SDS011;11187;49.412;20.956;2023-03-29T15:07:09;13.43;;;12.30;;
22046;SDS011;11187;49.412;20.956;2023-03-29T15:09:43;13.35;;;12.35;;
22046;SDS011;11187;49.412;20.956;2023-03-29T15:12:31;13.10;;;12.20;;
22046;SDS011;11187;49.412;20.956;2023-03-29T15:15:05;13.35;;;12.25;;
22046;SDS011;11187;49.412;20.956;2023-03-29T15:17:56;11.75;;;10.95;;
22046;SDS011;11187;49.412;20.956;2023-03-29T15:20:31;13.73;;;12.80;;
22046;SDS011;11187;49.412;20.956;2023-03-29T15:23:33;11.07;;;10.27;;
22046;SDS011;11187;49.412;20.956;2023-03-29T15:26:33;14.98;;;13.65;;
22046;SDS011;11187;49.412;20.956;2023-03-29T15:29:33;12.65;;;11.75;;
22046;SDS011;11187;49.412;20.956;2023-03-29T15:32:32;13.15;;;12.20;;
22046;SDS011;11187;49.412;20.956;2023-03-29T15:35:28;15.27;;;12.75;;
22046;SDS011;11187;49.412;20.956;2023-03-29T15:38:01;27.70;;;16.70;;
22046;SDS011;11187;49.412;20.956;2023-03-29T15:40:48;33.70;;;17.00;;
22046;SDS011;11187;49.412;20.956;2023-03-29T15:43:21;45.25;;;19.25;;
22046;SDS011;11187;49.412;20.956;2023-03-29T15:46:09;53.28;;;20.70;;
22046;SDS011;11187;49.412;20.956;2023-03-29T15:48:45;57.05;;;23.35;;
22046;SDS011;11187;49.412;20.956;2023-03-29T15:51:32;68.93;;;25.27;;
22046;SDS011;11187;49.412;20.956;2023-03-29T15:54:05;60.33;;;24.08;;
22046;SDS011;11187;49.412;20.956;2023-03-29T15:57:02;32.70;;;18.67;;
22046;SDS011;11187;49.412;20.956;2023-03-29T16:00:01;31.25;;;19.95;;
22046;SDS011;11187;49.412;20.956;2023-03-29T16:02:38;34.10;;;19.58;;
22046;SDS011;11187;49.412;20.956;2023-03-29T16:05:26;29.40;;;18.45;;
22046;SDS011;11187;49.412;20.956;2023-03-29T16:07:59;21.88;;;17.80;;
22046;SDS011;11187;49.412;20.956;2023-03-29T16:10:46;23.02;;;18.77;;
22046;SDS011;11187;49.412;20.956;2023-03-29T16:13:20;22.98;;;17.25;;
22046;SDS011;11187;49.412;20.956;2023-03-29T16:16:08;21.05;;;16.27;;
22046;SDS011;11187;49.412;20.956;2023-03-29T16:18:42;19.65;;;16.98;;
22046;SDS011;11187;49.412;20.956;2023-03-29T16:21:36;25.50;;;17.13;;
22046;SDS011;11187;49.412;20.956;2023-03-29T16:24:13;22.60;;;16.83;;
22046;SDS011;11187;49.412;20.956;2023-03-29T16:27:05;24.33;;;16.42;;
22046;SDS011;11187;49.412;20.956;2023-03-29T16:29:38;19.45;;;16.05;;
22046;SDS011;11187;49.412;20.956;2023-03-29T16:32:25;19.70;;;14.07;;
22046;SDS011;11187;49.412;20.956;2023-03-29T16:34:58;19.95;;;15.65;;
22046;SDS011;11187;49.412;20.956;2023-03-29T16:37:45;15.05;;;13.48;;
22046;SDS011;11187;49.412;20.956;2023-03-29T16:40:18;19.02;;;15.05;;
22046;SDS011;11187;49.412;20.956;2023-03-29T16:43:05;16.63;;;14.93;;
22046;SDS011;11187;49.412;20.956;2023-03-29T16:45:38;24.50;;;19.42;;
22046;SDS011;11187;49.412;20.956;2023-03-29T16:48:25;18.58;;;14.52;;
22046;SDS011;11187;49.412;20.956;2023-03-29T16:50:58;21.42;;;17.10;;
22046;SDS011;11187;49.412;20.956;2023-03-29T16:53:52;41.05;;;27.52;;
22046;SDS011;11187;49.412;20.956;2023-03-29T16:56:46;31.55;;;21.25;;
22046;SDS011;11187;49.412;20.956;2023-03-29T16:59:19;22.83;;;17.75;;
22046;SDS011;11187;49.412;20.956;2023-03-29T17:02:13;28.00;;;18.92;;
22046;SDS011;11187;49.412;20.956;2023-03-29T17:05:07;25.88;;;16.58;;
22046;SDS011;11187;49.412;20.956;2023-03-29T17:07:41;19.85;;;14.90;;
22046;SDS011;11187;49.412;20.956;2023-03-29T17:10:28;19.45;;;16.60;;
22046;SDS011;11187;49.412;20.956;2023-03-29T17:13:01;20.02;;;14.68;;
22046;SDS011;11187;49.412;20.956;2023-03-29T17:15:48;22.80;;;16.63;;
22046;SDS011;11187;49.412;20.956;2023-03-29T17:18:25;22.02;;;17.17;;
22046;SDS011;11187;49.412;20.956;2023-03-29T17:21:20;24.17;;;17.77;;
22046;SDS011;11187;49.412;20.956;2023-03-29T17:24:14;22.17;;;17.15;;
22046;SDS011;11187;49.412;20.956;2023-03-29T17:26:47;22.33;;;16.80;;
22046;SDS011;11187;49.412;20.956;2023-03-29T17:29:34;25.40;;;17.70;;
22046;SDS011;11187;49.412;20.956;2023-03-29T17:32:07;27.60;;;18.20;;
22046;SDS011;11187;49.412;20.956;2023-03-29T17:34:54;31.88;;;18.48;;
22046;SDS011;11187;49.412;20.956;2023-03-29T17:37:27;38.63;;;22.30;;
22046;SDS011;11187;49.412;20.956;2023-03-29T17:40:15;47.28;;;24.20;;
22046;SDS011;11187;49.412;20.956;2023-03-29T17:42:49;37.60;;;21.38;;
22046;SDS011;11187;49.412;20.956;2023-03-29T17:45:43;47.42;;;19.98;;
22046;SDS011;11187;49.412;20.956;2023-03-29T17:48:37;55.08;;;22.92;;
22046;SDS011;11187;49.412;20.956;2023-03-29T17:51:31;52.95;;;24.80;;
22046;SDS011;11187;49.412;20.956;2023-03-29T17:54:25;58.38;;;27.48;;
22046;SDS011;11187;49.412;20.956;2023-03-29T17:56:58;39.13;;;21.05;;